createdAt,value
2022-10-20T00:01:52.272Z,77902.81
2022-10-20T00:04:18.999Z,77912.44
2022-10-20T00:06:45.699Z,77920.16
2022-10-20T00:09:12.497Z,77922.09
2022-10-20T00:11:39.321Z,77918.25
2022-10-20T00:14:09.283Z,77918.25
2022-10-20T00:16:38.144Z,77916.31
2022-10-20T00:19:05.346Z,77906.66
2022-10-20T00:21:32.037Z,77908.59
2022-10-20T00:24:02.568Z,77912.44
2022-10-20T00:26:32.376Z,77906.66
2022-10-20T00:29:01.422Z,77904.75
2022-10-20T00:31:28.111Z,77895.09
2022-10-20T00:33:57.375Z,77864.25
2022-10-20T00:36:24.222Z,77870.03
2022-10-20T00:38:56.093Z,77877.75
2022-10-20T00:41:22.782Z,77877.75
2022-10-20T00:44:01.361Z,77881.59
2022-10-20T00:46:46.250Z,77883.53
2022-10-20T00:49:23.558Z,77883.53
2022-10-20T00:51:52.728Z,77873.91
2022-10-20T00:54:25.764Z,77873.91
2022-10-20T00:56:55.517Z,77873.91
2022-10-20T00:59:26.446Z,77877.75
2022-10-20T01:01:54.803Z,77897.03
2022-10-20T01:04:21.770Z,77900.88
2022-10-20T01:06:48.619Z,77914.38
2022-10-20T01:09:15.359Z,77918.25
2022-10-20T01:12:02.214Z,77920.16
2022-10-20T01:14:50.789Z,77920.16
2022-10-20T01:17:48.165Z,77929.81
2022-10-20T01:20:20.933Z,77947.16
2022-10-20T01:22:59.814Z,77960.66
2022-10-20T01:25:52.410Z,77974.13
2022-10-20T01:28:38.238Z,77987.63
2022-10-20T01:31:16.886Z,77989.56
2022-10-20T01:34:06.606Z,77978.00
2022-10-20T01:36:44.619Z,77970.28
2022-10-20T01:39:19.351Z,77978.00
2022-10-20T01:42:05.891Z,77966.44
2022-10-20T01:44:34.719Z,77976.06
2022-10-20T01:47:03.118Z,78003.06
2022-10-20T01:49:29.868Z,78028.13
2022-10-20T01:51:56.895Z,78051.25
2022-10-20T01:54:32.635Z,78072.47
2022-10-20T01:57:11.616Z,78085.97
2022-10-20T01:59:51.623Z,78087.88
2022-10-20T02:02:42.563Z,78089.81
2022-10-20T02:05:30.686Z,78076.31
2022-10-20T02:08:13.080Z,78066.69
2022-10-20T02:10:48.107Z,78062.81
2022-10-20T02:13:16.555Z,78062.81
2022-10-20T02:15:47.118Z,78047.41
2022-10-20T02:18:18.375Z,78047.41
2022-10-20T02:20:49.111Z,78051.25
2022-10-20T02:23:16.747Z,78057.03
2022-10-20T02:25:43.556Z,78055.09
2022-10-20T02:28:14.321Z,78043.53
2022-10-20T02:30:41.886Z,78047.41
2022-10-20T02:33:09.021Z,78047.41
2022-10-20T02:35:35.761Z,78043.53
2022-10-20T02:38:04.753Z,78045.47
2022-10-20T02:40:33.839Z,78053.19
2022-10-20T02:43:00.509Z,78058.97
2022-10-20T02:45:27.102Z,78062.81
2022-10-20T02:47:53.777Z,78062.81
2022-10-20T02:50:20.620Z,78068.59
2022-10-20T02:52:47.392Z,78074.38
2022-10-20T02:57:48.641Z,78074.38
2022-10-20T03:00:15.442Z,78078.25
2022-10-20T03:02:42.192Z,78085.97
2022-10-20T03:05:08.973Z,78097.53
2022-10-20T03:07:35.897Z,78105.22
2022-10-20T03:10:04.729Z,78112.94
2022-10-20T03:12:32.321Z,78112.94
2022-10-20T03:14:59.115Z,78116.81
2022-10-20T03:17:25.934Z,78112.94
2022-10-20T03:19:52.685Z,78101.38
2022-10-20T03:22:19.335Z,78087.88
2022-10-20T03:24:46.090Z,78089.81
2022-10-20T03:27:14.945Z,78109.09
2022-10-20T03:29:41.725Z,78132.22
2022-10-20T03:32:08.406Z,78132.22
2022-10-20T03:34:35.164Z,78136.09
2022-10-20T03:37:02.240Z,78141.88
2022-10-20T03:39:28.902Z,78139.94
2022-10-20T03:41:57.508Z,78149.56
2022-10-20T03:44:24.700Z,78130.31
2022-10-20T03:46:51.468Z,78116.81
2022-10-20T03:49:18.199Z,78116.81
2022-10-20T03:51:44.911Z,78118.72
2022-10-20T03:54:11.585Z,78116.81
2022-10-20T03:56:38.220Z,78116.81
2022-10-20T03:59:05.027Z,78120.66
2022-10-20T04:01:34.424Z,78116.81
2022-10-20T04:04:01.061Z,78105.22
2022-10-20T04:06:27.752Z,78101.38
2022-10-20T04:08:54.470Z,78105.22
2022-10-20T04:11:21.329Z,78114.88
2022-10-20T04:13:48.087Z,78116.81
2022-10-20T04:16:14.938Z,78114.88
2022-10-20T04:18:43.868Z,78109.09
2022-10-20T04:21:10.788Z,78105.22
2022-10-20T04:23:37.456Z,78107.16
2022-10-20T04:26:11.872Z,78103.31
2022-10-20T04:28:38.708Z,78105.22
2022-10-20T04:31:06.449Z,78101.38
2022-10-20T04:33:33.838Z,78099.44
2022-10-20T04:36:06.106Z,78107.16
2022-10-20T04:38:33.865Z,78109.09
2022-10-20T04:41:04.381Z,78101.38
2022-10-20T04:43:32.598Z,78103.31
2022-10-20T04:46:07.236Z,78112.94
2022-10-20T04:48:35.802Z,78116.81
2022-10-20T04:51:09.317Z,78116.81
2022-10-20T04:53:36.384Z,78107.16
2022-10-20T04:56:05.319Z,78122.59
2022-10-20T04:58:32.516Z,78128.38
2022-10-20T05:01:10.046Z,78130.31
2022-10-20T05:03:36.861Z,78134.16
2022-10-20T05:06:21.241Z,78132.22
2022-10-20T05:08:51.667Z,78130.31
2022-10-20T05:11:20.869Z,78128.38
2022-10-20T05:13:48.324Z,78132.22
2022-10-20T05:16:17.566Z,78147.66
2022-10-20T05:18:45.452Z,78143.78
2022-10-20T05:21:17.660Z,78139.94
2022-10-20T05:23:45.211Z,78161.16
2022-10-20T05:26:17.561Z,78163.06
2022-10-20T05:28:47.125Z,78163.06
2022-10-20T05:31:14.930Z,78151.50
2022-10-20T05:33:48.950Z,78132.22
2022-10-20T05:36:19.456Z,78118.72
2022-10-20T05:38:49.508Z,78097.53
2022-10-20T05:41:19.410Z,78066.69
2022-10-20T05:43:50.131Z,78039.69
2022-10-20T05:46:18.030Z,78012.69
2022-10-20T05:48:45.368Z,78001.13
2022-10-20T05:51:15.403Z,77966.44
2022-10-20T05:53:43.295Z,77935.59
2022-10-20T05:56:13.058Z,77898.97
2022-10-20T05:58:40.582Z,77866.19
2022-10-20T06:01:09.604Z,77819.91
2022-10-20T06:03:36.825Z,77800.66
2022-10-20T06:06:04.668Z,77762.09
2022-10-20T06:08:32.930Z,77723.53
2022-10-20T06:11:07.963Z,77719.69
2022-10-20T06:13:35.271Z,77708.13
2022-10-20T06:16:06.961Z,77665.72
2022-10-20T06:18:34.540Z,77619.44
2022-10-20T06:21:06.311Z,77631.00
2022-10-20T06:23:33.161Z,77661.84
2022-10-20T06:26:08.668Z,77600.16
2022-10-20T06:28:37.179Z,77515.34
2022-10-20T06:31:15.782Z,77480.66
2022-10-20T06:33:42.836Z,77409.34
2022-10-20T06:36:10.237Z,77338.03
2022-10-20T06:38:38.185Z,77370.78
2022-10-20T06:41:06.160Z,77326.47
2022-10-20T06:43:33.309Z,77262.84
2022-10-20T06:46:02.261Z,77241.66
2022-10-20T06:48:29.579Z,77264.78
2022-10-20T06:50:57.940Z,77284.06
2022-10-20T06:53:25.292Z,77276.34
2022-10-20T06:55:59.399Z,77257.06
2022-10-20T06:58:27.246Z,77295.63
2022-10-20T07:01:03.577Z,77253.22
2022-10-20T07:03:35.467Z,77179.97
2022-10-20T07:06:03.623Z,77153.00
2022-10-20T07:08:32.973Z,77052.78
2022-10-20T07:11:01.816Z,77091.31
2022-10-20T07:13:30.018Z,77114.44
2022-10-20T07:15:58.096Z,77073.97
2022-10-20T07:18:26.237Z,77010.38
2022-10-20T07:20:56.276Z,77050.84
2022-10-20T07:23:23.059Z,77023.88
2022-10-20T07:25:49.648Z,77052.78
2022-10-20T07:28:16.320Z,77041.22
2022-10-20T07:30:42.936Z,77027.72
2022-10-20T07:33:09.861Z,76944.84
2022-10-20T07:35:36.832Z,76894.75
2022-10-20T07:38:03.482Z,76944.84
2022-10-20T07:40:30.922Z,77021.94
2022-10-20T07:42:57.616Z,77035.44
2022-10-20T07:45:24.263Z,76993.03
2022-10-20T07:47:50.885Z,76971.81
2022-10-20T07:50:17.834Z,76902.44
2022-10-20T07:52:44.447Z,76935.22
2022-10-20T07:55:18.000Z,76906.31
2022-10-20T07:57:58.018Z,76969.91
2022-10-20T08:00:24.624Z,76914.00
2022-10-20T08:02:51.334Z,76921.72
2022-10-20T08:05:18.101Z,76960.25
2022-10-20T08:07:44.823Z,76944.84
2022-10-20T08:10:11.465Z,76890.88
2022-10-20T08:12:38.608Z,76896.66
2022-10-20T08:15:08.597Z,76941.00
2022-10-20T08:17:37.216Z,76941.00
2022-10-20T08:22:45.792Z,76954.47
2022-10-20T08:25:14.872Z,76983.38
2022-10-20T08:27:42.039Z,76881.25
2022-10-20T08:30:23.411Z,76915.94
2022-10-20T08:32:53.949Z,76914.00
2022-10-20T08:35:22.360Z,76881.25
2022-10-20T08:37:49.452Z,76848.47
2022-10-20T08:40:38.147Z,76813.78
2022-10-20T08:43:04.786Z,76829.22
2022-10-20T08:45:35.951Z,76844.63
2022-10-20T08:48:04.805Z,76840.78
2022-10-20T08:50:32.275Z,76861.97
2022-10-20T08:53:00.738Z,76892.81
2022-10-20T08:55:32.586Z,76879.31
2022-10-20T08:58:12.421Z,76840.78
2022-10-20T09:00:40.251Z,76844.63
2022-10-20T09:03:31.033Z,76881.25
2022-10-20T09:06:08.170Z,76865.84
2022-10-20T09:08:37.572Z,76846.56
2022-10-20T09:11:07.339Z,76833.06
2022-10-20T09:13:34.286Z,76836.94
2022-10-20T09:16:05.700Z,76831.13
2022-10-20T09:18:34.202Z,76842.69
2022-10-20T09:21:04.643Z,76829.22
2022-10-20T09:23:43.389Z,76852.34
2022-10-20T09:26:54.309Z,76806.09
2022-10-20T09:29:22.262Z,76777.19
2022-10-20T09:31:54.908Z,76771.41
2022-10-20T09:34:29.309Z,76767.53
2022-10-20T09:37:03.641Z,76779.09
2022-10-20T09:39:39.232Z,76759.84
2022-10-20T09:42:14.230Z,76742.50
2022-10-20T09:45:04.931Z,76740.56
2022-10-20T09:47:36.801Z,76690.47
2022-10-20T09:54:06.610Z,76648.06
2022-10-20T09:57:17.922Z,76663.47
2022-10-20T10:00:42.577Z,76626.88
2022-10-20T10:03:15.101Z,76563.28
2022-10-20T10:13:26.620Z,76555.56
2022-10-20T10:16:09.252Z,76540.16
2022-10-20T10:18:36.830Z,76509.31
2022-10-20T10:21:07.360Z,76526.66
2022-10-20T10:23:36.678Z,76509.31
2022-10-20T10:26:23.987Z,76493.91
2022-10-20T10:28:58.272Z,76486.19
2022-10-20T10:31:26.041Z,76470.78
2022-10-20T10:34:24.590Z,76501.63
2022-10-20T10:36:51.218Z,76493.91
2022-10-20T10:39:17.903Z,76484.28
2022-10-20T10:42:07.133Z,76439.94
2022-10-20T10:44:39.309Z,76414.91
2022-10-20T10:47:23.865Z,76443.81
2022-10-20T10:50:25.978Z,76493.91
2022-10-20T10:53:36.673Z,76501.63
2022-10-20T10:56:25.205Z,76443.81
2022-10-20T10:59:12.162Z,76405.25
2022-10-20T11:02:07.481Z,76370.56
2022-10-20T11:05:11.851Z,76359.00
2022-10-20T11:08:01.465Z,76357.09
2022-10-20T11:10:52.049Z,76372.50
2022-10-20T11:13:28.217Z,76378.28
2022-10-20T11:16:21.989Z,76386.00
2022-10-20T11:19:31.882Z,76397.56
2022-10-20T11:22:16.541Z,76368.66
2022-10-20T11:24:55.657Z,76355.16
2022-10-20T11:27:26.638Z,76355.16
2022-10-20T11:29:57.654Z,76360.94
2022-10-20T11:32:46.097Z,76343.59
2022-10-20T11:35:29.559Z,76312.78
2022-10-20T11:38:31.856Z,76322.41
2022-10-20T11:41:09.387Z,76308.91
2022-10-20T11:44:00.899Z,76314.69
2022-10-20T11:46:35.013Z,76333.97
2022-10-20T11:49:09.429Z,76355.16
2022-10-20T11:52:15.728Z,76359.00
2022-10-20T11:55:05.431Z,76341.69
2022-10-20T11:57:41.242Z,76351.31
2022-10-20T12:00:26.208Z,76305.06
2022-10-20T12:03:01.796Z,76262.66
2022-10-20T12:05:46.703Z,76268.44
2022-10-20T12:08:36.003Z,76305.06
2022-10-20T12:11:21.362Z,76289.66
2022-10-20T12:13:58.006Z,76274.22
2022-10-20T12:16:55.198Z,76251.13
2022-10-20T12:19:26.191Z,76220.28
2022-10-20T12:22:07.008Z,76216.44
2022-10-20T12:24:33.801Z,76228.00
2022-10-20T12:27:06.150Z,76216.44
2022-10-20T12:29:32.650Z,76216.44
2022-10-20T12:32:28.088Z,76214.50
2022-10-20T12:34:58.920Z,76228.00
2022-10-20T12:37:25.665Z,76220.28
2022-10-20T12:39:55.399Z,76220.28
2022-10-20T12:42:23.635Z,76212.56
2022-10-20T12:44:50.826Z,76220.28
2022-10-20T12:47:23.052Z,76253.03
2022-10-20T12:50:01.483Z,76243.41
2022-10-20T12:52:32.646Z,76235.69
2022-10-20T12:55:08.779Z,76241.47
2022-10-20T12:57:44.157Z,76235.69
2022-10-20T13:00:20.042Z,76233.78
2022-10-20T13:02:49.667Z,76237.63
2022-10-20T13:05:16.250Z,76251.13
2022-10-20T13:07:48.788Z,76243.41
2022-10-20T13:10:27.959Z,76247.25
2022-10-20T13:13:17.562Z,76262.66
2022-10-20T13:15:44.205Z,76274.22
2022-10-20T13:18:13.774Z,76270.38
2022-10-20T13:21:06.760Z,76268.44
2022-10-20T13:23:43.937Z,76262.66
2022-10-20T13:26:25.504Z,76262.66
2022-10-20T13:28:54.904Z,76247.25
2022-10-20T13:31:51.786Z,76266.53
2022-10-20T13:34:18.493Z,76256.91
2022-10-20T13:36:48.080Z,76254.97
2022-10-20T13:39:45.960Z,76270.38
2022-10-20T13:42:36.536Z,76274.22
2022-10-20T13:45:27.488Z,76276.16
2022-10-20T13:48:12.987Z,76297.34
2022-10-20T13:50:47.292Z,76297.34
2022-10-20T13:53:26.346Z,76305.06
2022-10-20T13:55:57.675Z,76320.47
2022-10-20T13:58:25.969Z,76308.91
2022-10-20T14:01:01.579Z,76307.00
2022-10-20T14:03:31.241Z,76305.06
2022-10-20T14:05:59.622Z,76316.63
2022-10-20T14:08:26.661Z,76320.47
2022-10-20T14:11:04.759Z,76324.34
2022-10-20T14:13:34.552Z,76314.69
2022-10-20T14:16:05.691Z,76314.69
2022-10-20T14:18:35.976Z,76307.00
2022-10-20T14:21:05.765Z,76297.34
2022-10-20T14:23:37.051Z,76295.44
2022-10-20T14:26:07.215Z,76287.72
2022-10-20T14:28:35.657Z,76297.34
2022-10-20T14:31:02.879Z,76303.13
2022-10-20T14:33:30.939Z,76305.06
2022-10-20T14:35:59.377Z,76301.22
2022-10-20T14:38:33.235Z,76312.78
2022-10-20T14:41:00.244Z,76310.84
2022-10-20T14:43:42.695Z,76312.78
2022-10-20T14:46:11.202Z,76320.47
2022-10-20T14:48:43.414Z,76310.84
2022-10-20T14:51:29.133Z,76320.47
2022-10-20T14:54:20.806Z,76335.91
2022-10-20T14:56:49.854Z,76332.03
2022-10-20T14:59:26.897Z,76335.91
2022-10-20T15:02:12.419Z,76343.59
2022-10-20T15:04:40.973Z,76345.53
2022-10-20T15:07:13.437Z,76347.47
2022-10-20T15:09:42.095Z,76357.09
2022-10-20T15:12:20.783Z,76370.56
2022-10-20T15:14:51.447Z,76389.84
2022-10-20T15:17:31.366Z,76393.69
2022-10-20T15:19:58.348Z,76389.84
2022-10-20T15:22:25.090Z,76397.56
2022-10-20T15:24:51.809Z,76405.25
2022-10-20T15:27:18.432Z,76412.97
2022-10-20T15:29:51.959Z,76418.75
2022-10-20T15:32:18.691Z,76412.97
2022-10-20T15:34:45.330Z,76432.25
2022-10-20T15:37:12.058Z,76434.16
2022-10-20T15:39:38.780Z,76445.72
2022-10-20T15:42:11.142Z,76451.50
2022-10-20T15:44:38.265Z,76470.78
2022-10-20T15:47:04.943Z,76472.72
2022-10-20T15:49:31.714Z,76476.56
2022-10-20T15:51:58.544Z,76486.19
2022-10-20T15:54:25.323Z,76497.75
2022-10-20T15:56:52.259Z,76497.75
2022-10-20T15:59:19.295Z,76517.03
2022-10-20T16:01:46.276Z,76536.28
2022-10-20T16:04:31.575Z,76542.06
2022-10-20T16:07:01.942Z,76561.34
2022-10-20T16:09:30.544Z,76569.06
2022-10-20T16:11:57.497Z,76590.25
2022-10-20T16:14:24.186Z,76601.81
2022-10-20T16:16:51.113Z,76613.38
2022-10-20T16:19:18.331Z,76617.22
2022-10-20T16:21:45.541Z,76634.56
2022-10-20T16:24:12.596Z,76646.13
2022-10-20T16:26:39.750Z,76640.34
2022-10-20T16:29:09.568Z,76638.44
2022-10-20T16:31:36.711Z,76628.78
2022-10-20T16:34:03.750Z,76640.34
2022-10-20T16:36:30.691Z,76640.34
2022-10-20T16:38:57.953Z,76644.22
2022-10-20T16:41:24.843Z,76655.78
2022-10-20T16:43:51.531Z,76671.19
2022-10-20T16:46:18.665Z,76694.31
2022-10-20T16:48:50.178Z,76686.59
2022-10-20T16:51:18.131Z,76686.59
2022-10-20T16:53:45.310Z,76686.59
2022-10-20T16:56:15.366Z,76671.19
2022-10-20T16:58:45.110Z,76671.19
2022-10-20T17:01:13.316Z,76661.56
2022-10-20T17:03:45.512Z,76671.19
2022-10-20T17:06:13.630Z,76682.75
2022-10-20T17:08:40.781Z,76680.81
2022-10-20T17:11:10.541Z,76692.38
2022-10-20T17:13:38.564Z,76698.16
2022-10-20T17:16:11.092Z,76694.31
2022-10-20T17:18:38.191Z,76690.47
2022-10-20T17:21:05.336Z,76690.47
2022-10-20T17:23:40.220Z,76694.31
2022-10-20T17:26:13.596Z,76698.16
2022-10-20T17:28:40.272Z,76702.03
2022-10-20T17:31:08.789Z,76702.03
2022-10-20T17:33:37.071Z,76702.03
2022-10-20T17:36:04.372Z,76705.88
2022-10-20T17:38:31.522Z,76684.69
2022-10-20T17:41:09.330Z,76671.19
2022-10-20T17:43:36.722Z,76663.47
2022-10-20T17:46:13.420Z,76671.19
2022-10-20T17:48:40.210Z,76675.03
2022-10-20T17:51:08.271Z,76667.34
2022-10-20T17:53:36.649Z,76657.69
2022-10-20T17:56:06.151Z,76659.63
2022-10-20T17:58:33.854Z,76659.63
2022-10-20T18:01:09.902Z,76651.91
2022-10-20T18:03:36.853Z,76650.00
2022-10-20T18:06:15.237Z,76653.84
2022-10-20T18:08:42.420Z,76650.00
2022-10-20T18:11:20.308Z,76648.06
2022-10-20T18:13:47.258Z,76640.34
2022-10-20T18:16:16.669Z,76623.00
2022-10-20T18:18:43.999Z,76617.22
2022-10-20T18:21:12.718Z,76617.22
2022-10-20T18:23:41.378Z,76613.38
2022-10-20T18:26:11.692Z,76619.16
2022-10-20T18:28:44.448Z,76617.22
2022-10-20T18:31:23.097Z,76605.66
2022-10-20T18:33:54.217Z,76609.53
2022-10-20T18:36:20.915Z,76617.22
2022-10-20T18:38:48.150Z,76607.59
2022-10-20T18:41:26.062Z,76617.22
2022-10-20T18:44:00.576Z,76601.81
2022-10-20T18:46:28.955Z,76599.88
2022-10-20T18:48:56.615Z,76596.03
2022-10-20T18:51:23.523Z,76601.81
2022-10-20T18:53:55.777Z,76605.66
2022-10-20T18:56:24.248Z,76609.53
2022-10-20T18:58:55.874Z,76617.22
2022-10-20T19:01:25.851Z,76628.78
2022-10-20T19:03:55.041Z,76626.88
2022-10-20T19:06:24.438Z,76609.53
2022-10-20T19:09:00.230Z,76617.22
2022-10-20T19:11:29.316Z,76615.31
2022-10-20T19:13:56.951Z,76615.31
2022-10-20T19:16:27.184Z,76611.44
2022-10-20T19:18:56.505Z,76624.94
2022-10-20T19:21:24.718Z,76617.22
2022-10-20T19:23:53.866Z,76617.22
2022-10-20T19:26:21.585Z,76624.94
2022-10-20T19:28:56.078Z,76632.66
2022-10-20T19:31:36.182Z,76624.94
2022-10-20T19:34:16.431Z,76626.88
2022-10-20T19:36:46.656Z,76630.72
2022-10-20T19:39:16.487Z,76648.06
2022-10-20T19:41:43.814Z,76655.78
2022-10-20T19:44:15.562Z,76663.47
2022-10-20T19:46:43.818Z,76676.97
2022-10-20T19:49:10.635Z,76690.47
2022-10-20T19:51:37.471Z,76705.88
2022-10-20T19:54:04.670Z,76709.72
2022-10-20T19:56:32.074Z,76717.44
2022-10-20T19:59:01.024Z,76732.84
2022-10-20T20:01:28.181Z,76736.72
2022-10-20T20:03:54.874Z,76748.28
2022-10-20T20:06:21.703Z,76742.50
2022-10-20T20:08:52.668Z,76748.28
2022-10-20T20:11:30.943Z,76736.72
2022-10-20T20:14:03.915Z,76740.56
2022-10-20T20:16:30.965Z,76742.50
2022-10-20T20:18:57.912Z,76752.13
2022-10-20T20:21:25.359Z,76752.13
2022-10-20T20:24:01.001Z,76736.72
2022-10-20T20:26:29.684Z,76727.06
2022-10-20T20:28:56.933Z,76725.16
2022-10-20T20:31:24.176Z,76711.66
2022-10-20T20:33:50.952Z,76700.09
2022-10-20T20:36:18.651Z,76702.03
2022-10-20T20:38:45.682Z,76702.03
2022-10-20T20:41:17.797Z,76694.31
2022-10-20T20:43:47.923Z,76686.59
2022-10-20T20:46:16.942Z,76686.59
2022-10-20T20:48:44.422Z,76702.03
2022-10-20T20:51:12.203Z,76702.03
2022-10-20T20:53:40.063Z,76698.16
2022-10-20T20:56:09.527Z,76702.03
2022-10-20T20:58:36.576Z,76717.44
2022-10-20T21:01:10.564Z,76709.72
2022-10-20T21:03:40.511Z,76717.44
2022-10-20T21:06:10.303Z,76715.50
2022-10-20T21:08:39.097Z,76729.00
2022-10-20T21:11:07.400Z,76717.44
2022-10-20T21:13:35.805Z,76717.44
2022-10-20T21:16:16.148Z,76727.06
2022-10-20T21:18:46.464Z,76729.00
2022-10-20T21:21:28.218Z,76740.56
2022-10-20T21:23:56.554Z,76730.94
2022-10-20T21:26:23.950Z,76740.56
2022-10-20T21:28:51.191Z,76744.41
2022-10-20T21:31:19.938Z,76729.00
2022-10-20T21:33:50.598Z,76725.16
2022-10-20T21:36:18.681Z,76736.72
2022-10-20T21:38:46.157Z,76744.41
2022-10-20T21:41:16.180Z,76746.34
2022-10-20T21:43:45.178Z,76742.50
2022-10-20T21:46:19.520Z,76752.13
2022-10-20T21:48:48.689Z,76755.97
2022-10-20T21:51:21.922Z,76763.69
2022-10-20T21:53:49.077Z,76779.09
2022-10-20T21:56:16.278Z,76771.41
2022-10-20T21:58:43.063Z,76792.59
2022-10-20T22:01:13.776Z,76802.22
2022-10-20T22:03:41.160Z,76809.94
2022-10-20T22:06:09.803Z,76802.22
2022-10-20T22:08:42.210Z,76809.94
2022-10-20T22:11:12.978Z,76821.50
2022-10-20T22:13:39.766Z,76821.50
2022-10-20T22:16:08.370Z,76829.22
2022-10-20T22:18:35.464Z,76833.06
2022-10-20T22:21:11.123Z,76840.78
2022-10-20T22:23:40.608Z,76838.84
2022-10-20T22:26:07.561Z,76821.50
2022-10-20T22:28:34.321Z,76817.66
2022-10-20T22:33:33.378Z,76831.13
2022-10-20T22:36:00.139Z,76825.34
2022-10-20T22:38:26.776Z,76821.50
2022-10-20T22:40:58.700Z,76831.13
2022-10-20T22:43:26.672Z,76833.06
2022-10-20T22:45:53.710Z,76836.94
2022-10-20T22:48:20.902Z,76844.63
2022-10-20T22:50:48.179Z,76844.63
2022-10-20T22:53:15.316Z,76836.94
2022-10-20T22:55:42.318Z,76840.78
2022-10-20T22:58:09.064Z,76844.63
2022-10-20T23:00:35.853Z,76852.34
2022-10-20T23:03:02.530Z,76848.47
2022-10-20T23:05:29.247Z,76833.06
2022-10-20T23:07:55.919Z,76844.63
2022-10-20T23:10:22.954Z,76836.94
2022-10-20T23:12:49.870Z,76833.06
2022-10-20T23:15:16.787Z,76831.13
2022-10-20T23:17:43.519Z,76848.47
2022-10-20T23:20:10.858Z,76844.63
2022-10-20T23:22:37.570Z,76844.63
2022-10-20T23:25:04.740Z,76850.41
2022-10-20T23:27:35.776Z,76856.19
2022-10-20T23:30:02.862Z,76840.78
2022-10-20T23:32:29.881Z,76840.78
2022-10-20T23:34:56.639Z,76840.78
2022-10-20T23:37:25.673Z,76852.34
2022-10-20T23:39:52.332Z,76852.34
2022-10-20T23:42:18.953Z,76860.06
2022-10-20T23:44:45.671Z,76856.19
2022-10-20T23:47:12.324Z,76865.84
2022-10-20T23:49:38.966Z,76856.19
2022-10-20T23:52:06.078Z,76844.63
2022-10-20T23:54:34.165Z,76856.19
2022-10-20T23:57:02.504Z,76873.53
2022-10-20T23:59:29.204Z,76879.31
